MMML/MXL METAR and TAF weather

Enter ICAO airport designator
Station Type Date Time Source
MMML METAR 2022/12/05 14:22 UTC NOAA

MMML 051422Z 04004KT 1/4SM FG SCT200 08/08 A2999 RMK 8/001


Station Type Date Time Source
MMML Decoded METAR 2022/12/05 14:22 UTC NOAA

Mexicali International Airport , Mexico (MMML) 32-38N 117-00W
Dec 05, 2022 - 09:22 AM EST / 2022.12.05 1422 UTC
Wind: from the NE (040 degrees) at 5 MPH (4 KT):0
Visibility: 1/4 mile(s):0
Sky conditions: partly cloudy
Weather: fog
Temperature: 46 F (8 C)
Dew Point: 46 F (8 C)
Relative Humidity: 100%
Pressure (altimeter): 29.99 in. Hg (1015 hPa)
ob: MMML 051422Z 04004KT 1/4SM FG SCT200 08/08 A2999 RMK 8/001
cycle: 14

Station Type Date Time Source
MMML TAF 2022/12/05 14:21 UTC NOAA

TAF
AMD MMML 051414Z 0514/0606 03005KT 2SM BR SCT200
TEMPO 0514/0516 1/2SM FG
FM051600 28010KT P6SM BKN200
FM052200 28020KT P6SM BKN200
TEMPO 0523/0602 28030KT 1SM BLDU

Example: see airport list